createdAt,value
2019-03-09T00:02:00.939Z,9.57
2019-03-09T00:05:05.523Z,8.47
2019-03-09T00:08:08.990Z,6.53
2019-03-09T00:11:16.694Z,6.03
2019-03-09T00:14:20.153Z,8.73
2019-03-09T00:17:23.618Z,7.93
2019-03-09T00:20:27.062Z,9.63
2019-03-09T00:23:43.977Z,7.93
2019-03-09T00:26:54.844Z,11.87
2019-03-09T00:29:59.962Z,8.73
2019-03-09T00:33:03.470Z,7.73
2019-03-09T00:36:06.938Z,10.37
2019-03-09T00:39:10.374Z,9.53
2019-03-09T00:42:13.854Z,11.33
2019-03-09T00:45:17.366Z,10.30
2019-03-09T00:48:20.923Z,11.20
2019-03-09T00:51:24.356Z,9.30
2019-03-09T00:54:27.826Z,12.33
2019-03-09T00:57:31.254Z,11.60
2019-03-09T01:00:34.714Z,9.83
2019-03-09T01:03:38.154Z,7.77
2019-03-09T01:06:41.619Z,8.10
2019-03-09T01:09:45.054Z,7.90
2019-03-09T01:12:48.509Z,8.93
2019-03-09T01:15:51.939Z,6.13
2019-03-09T01:18:55.408Z,8.23
2019-03-09T01:21:58.842Z,8.97
2019-03-09T01:25:02.302Z,9.57
2019-03-09T01:28:05.766Z,9.70
2019-03-09T01:31:09.201Z,9.63
2019-03-09T01:34:12.678Z,10.03
2019-03-09T01:37:16.113Z,6.73
2019-03-09T01:40:19.574Z,6.53
2019-03-09T01:43:23.013Z,7.60
2019-03-09T01:46:26.484Z,4.03
2019-03-09T01:49:29.918Z,8.70
2019-03-09T01:52:33.385Z,5.70
2019-03-09T01:55:36.831Z,8.20
2019-03-09T01:58:40.305Z,5.40
2019-03-09T02:01:44.065Z,5.13
2019-03-09T02:04:47.524Z,5.23
2019-03-09T02:07:50.989Z,8.43
2019-03-09T02:10:54.429Z,5.10
2019-03-09T02:13:57.960Z,9.20
2019-03-09T02:17:01.401Z,5.00
2019-03-09T02:20:17.451Z,6.20
2019-03-09T02:23:20.883Z,4.53
2019-03-09T02:26:24.351Z,7.40
2019-03-09T02:29:27.786Z,6.90
2019-03-09T02:32:31.257Z,4.57
2019-03-09T02:35:34.702Z,4.50
2019-03-09T02:38:39.815Z,7.37
2019-03-09T02:41:43.243Z,5.43
2019-03-09T02:44:46.710Z,5.63
2019-03-09T02:47:50.462Z,5.87
2019-03-09T02:50:56.721Z,4.27
2019-03-09T02:54:00.198Z,4.97
2019-03-09T02:57:03.634Z,4.30
2019-03-09T03:00:20.925Z,4.57
2019-03-09T03:03:24.395Z,7.97
2019-03-09T03:06:27.903Z,5.53
2019-03-09T03:09:31.578Z,5.63
2019-03-09T03:12:35.022Z,5.73
2019-03-09T03:15:38.562Z,3.00
2019-03-09T03:18:42.000Z,4.10
2019-03-09T03:21:45.619Z,4.13
2019-03-09T03:24:49.274Z,4.93
2019-03-09T03:27:52.731Z,6.43
2019-03-09T03:30:56.200Z,5.03
2019-03-09T03:33:59.644Z,7.93
2019-03-09T03:37:03.181Z,4.10
2019-03-09T03:40:09.256Z,7.37
2019-03-09T03:43:12.717Z,4.03
2019-03-09T03:46:16.141Z,6.30
2019-03-09T03:49:19.606Z,4.50
2019-03-09T03:52:23.046Z,6.87
2019-03-09T03:55:26.544Z,4.60
2019-03-09T03:58:30.034Z,5.33
2019-03-09T04:01:33.501Z,7.17
2019-03-09T04:04:36.950Z,7.40
2019-03-09T04:07:41.341Z,5.40
2019-03-09T04:10:44.793Z,6.57
2019-03-09T04:13:48.306Z,7.90
2019-03-09T04:16:51.782Z,6.93
2019-03-09T04:19:55.219Z,7.17
2019-03-09T04:22:58.666Z,6.33
2019-03-09T04:26:02.101Z,9.70
2019-03-09T04:29:05.555Z,6.10
2019-03-09T04:32:09.014Z,5.10
2019-03-09T04:35:12.459Z,4.90
2019-03-09T04:38:15.916Z,4.90
2019-03-09T04:41:19.382Z,5.17
2019-03-09T04:44:22.818Z,4.70
2019-03-09T04:47:26.268Z,6.00
2019-03-09T04:50:29.753Z,3.97
2019-03-09T04:53:33.194Z,5.20
2019-03-09T04:56:36.653Z,6.10
2019-03-09T04:59:40.094Z,7.80
2019-03-09T05:02:43.545Z,6.30
2019-03-09T05:05:47.032Z,7.03
2019-03-09T05:08:53.597Z,5.83
2019-03-09T05:11:57.053Z,6.40
2019-03-09T05:15:02.498Z,5.43
2019-03-09T05:18:05.938Z,5.57
2019-03-09T05:21:09.402Z,5.57
2019-03-09T05:24:12.858Z,4.63
2019-03-09T05:27:16.313Z,5.03
2019-03-09T05:30:39.758Z,8.00
2019-03-09T05:33:43.214Z,6.47
2019-03-09T05:36:46.676Z,6.60
2019-03-09T05:39:50.145Z,5.23
2019-03-09T05:42:53.678Z,4.83
2019-03-09T05:45:57.120Z,5.00
2019-03-09T05:49:00.591Z,5.93
2019-03-09T05:52:19.114Z,4.33
2019-03-09T05:55:22.583Z,5.73
2019-03-09T05:58:26.123Z,4.87
2019-03-09T06:01:29.617Z,5.57
2019-03-09T06:04:33.074Z,5.43
2019-03-09T06:07:36.504Z,4.13
2019-03-09T06:10:39.967Z,5.13
2019-03-09T06:13:43.418Z,3.87
2019-03-09T06:16:46.880Z,3.60
2019-03-09T06:19:50.333Z,3.40
2019-03-09T06:22:53.790Z,5.47
2019-03-09T06:25:57.230Z,4.13
2019-03-09T06:29:00.681Z,4.60
2019-03-09T06:32:33.074Z,5.00
2019-03-09T06:35:36.530Z,3.87
2019-03-09T06:38:51.173Z,3.80
2019-03-09T06:42:09.481Z,6.07
2019-03-09T06:45:13.488Z,3.70
2019-03-09T06:48:16.942Z,4.33
2019-03-09T06:51:20.401Z,2.97
2019-03-09T06:54:23.874Z,3.70
2019-03-09T06:57:27.374Z,3.40
2019-03-09T07:00:35.625Z,3.40
2019-03-09T07:03:39.058Z,3.47
2019-03-09T07:06:42.523Z,4.63
2019-03-09T07:09:45.980Z,4.43
2019-03-09T07:12:49.431Z,5.17
2019-03-09T07:15:52.886Z,3.50
2019-03-09T07:18:56.337Z,3.20
2019-03-09T07:21:59.783Z,2.57
2019-03-09T07:25:03.226Z,2.80
2019-03-09T07:28:08.520Z,2.53
2019-03-09T07:31:11.989Z,2.17
2019-03-09T07:34:27.821Z,2.40
2019-03-09T07:37:31.269Z,2.87
2019-03-09T07:40:34.723Z,2.70
2019-03-09T07:43:38.187Z,3.43
2019-03-09T07:46:41.621Z,4.43
2019-03-09T07:49:45.072Z,3.77
2019-03-09T07:52:48.521Z,4.97
2019-03-09T07:55:52.011Z,4.57
2019-03-09T07:58:55.505Z,3.93
2019-03-09T08:01:58.941Z,3.83
2019-03-09T08:05:02.407Z,3.10
2019-03-09T08:08:05.862Z,3.13
2019-03-09T08:11:09.334Z,3.30
2019-03-09T08:14:12.765Z,3.10
2019-03-09T08:17:16.229Z,3.60
2019-03-09T08:20:23.196Z,2.90
2019-03-09T08:23:26.653Z,2.77
2019-03-09T08:26:30.113Z,5.10
2019-03-09T08:29:33.625Z,2.50
2019-03-09T08:32:37.120Z,2.27
2019-03-09T08:35:40.734Z,2.23
2019-03-09T08:38:44.326Z,3.13
2019-03-09T08:41:47.832Z,2.10
2019-03-09T08:44:51.282Z,3.13
2019-03-09T08:47:54.745Z,2.70
2019-03-09T08:50:58.211Z,2.40
2019-03-09T08:54:01.666Z,2.73
2019-03-09T08:57:05.213Z,2.10
2019-03-09T09:00:21.014Z,3.50
2019-03-09T09:03:24.521Z,3.70
2019-03-09T09:06:27.989Z,2.63
2019-03-09T09:09:31.437Z,4.77
2019-03-09T09:12:34.910Z,5.30
2019-03-09T09:15:38.349Z,5.13
2019-03-09T09:18:41.838Z,4.53
2019-03-09T09:21:45.278Z,3.07
2019-03-09T09:24:48.743Z,5.17
2019-03-09T09:27:52.480Z,3.67
2019-03-09T09:30:56.045Z,4.07
2019-03-09T09:33:59.562Z,4.87
2019-03-09T09:37:03.106Z,3.43
2019-03-09T09:40:15.580Z,3.13
2019-03-09T09:43:19.029Z,4.10
2019-03-09T09:46:22.494Z,4.83
2019-03-09T09:49:25.985Z,5.30
2019-03-09T09:52:29.421Z,4.00
2019-03-09T09:55:32.881Z,2.20
2019-03-09T09:58:36.362Z,4.97
2019-03-09T10:01:39.803Z,5.57
2019-03-09T10:04:43.265Z,3.60
2019-03-09T10:07:46.739Z,4.50
2019-03-09T10:10:50.190Z,5.00
2019-03-09T10:13:53.653Z,4.30
2019-03-09T10:16:57.118Z,4.10
2019-03-09T10:20:00.568Z,4.23
2019-03-09T10:23:05.106Z,2.77
2019-03-09T10:26:08.617Z,5.40
2019-03-09T10:29:12.085Z,3.37
2019-03-09T10:32:15.531Z,4.23
2019-03-09T10:35:19.431Z,5.50
2019-03-09T10:38:22.871Z,4.93
2019-03-09T10:41:26.328Z,2.20
2019-03-09T10:44:29.793Z,4.87
2019-03-09T10:47:33.224Z,3.80
2019-03-09T10:50:36.697Z,1.90
2019-03-09T10:53:40.157Z,5.03
2019-03-09T10:56:43.604Z,3.17
2019-03-09T10:59:47.065Z,3.90
2019-03-09T11:02:50.530Z,3.73
2019-03-09T11:05:53.997Z,3.63
2019-03-09T11:08:57.475Z,4.00
2019-03-09T11:12:00.915Z,3.23
2019-03-09T11:15:06.113Z,4.43
2019-03-09T11:18:09.557Z,3.73
2019-03-09T11:21:13.026Z,4.23
2019-03-09T11:24:16.482Z,3.20
2019-03-09T11:27:19.921Z,3.30
2019-03-09T11:30:27.874Z,3.03
2019-03-09T11:33:31.353Z,4.00
2019-03-09T11:36:34.786Z,3.30
2019-03-09T11:39:38.244Z,3.07
2019-03-09T11:42:41.682Z,3.33
2019-03-09T11:45:45.142Z,4.00
2019-03-09T11:48:48.588Z,3.33
2019-03-09T11:51:52.049Z,3.47
2019-03-09T11:54:55.496Z,2.97
2019-03-09T11:57:58.961Z,2.63
2019-03-09T12:01:02.403Z,4.20
2019-03-09T12:04:05.876Z,3.30
2019-03-09T12:07:09.343Z,2.77
2019-03-09T12:10:13.125Z,4.57
2019-03-09T12:13:16.582Z,2.10
2019-03-09T12:16:20.048Z,2.30
2019-03-09T12:19:23.488Z,2.40
2019-03-09T12:22:26.958Z,2.27
2019-03-09T12:25:30.414Z,2.80
2019-03-09T12:28:33.867Z,2.70
2019-03-09T12:31:37.322Z,2.07
2019-03-09T12:34:40.795Z,2.60
2019-03-09T12:37:44.278Z,2.17
2019-03-09T12:40:47.714Z,2.10
2019-03-09T12:43:51.177Z,3.17
2019-03-09T12:46:54.614Z,2.53
2019-03-09T12:49:58.189Z,1.73
2019-03-09T12:53:01.650Z,2.43
2019-03-09T12:56:05.170Z,3.13
2019-03-09T12:59:08.633Z,2.27
2019-03-09T13:02:12.068Z,3.80
2019-03-09T13:05:17.279Z,2.33
2019-03-09T13:08:20.741Z,1.93
2019-03-09T13:11:24.187Z,1.70
2019-03-09T13:14:27.656Z,1.60
2019-03-09T13:17:32.013Z,1.80
2019-03-09T13:20:35.474Z,1.27
2019-03-09T13:23:38.941Z,1.40
2019-03-09T13:26:42.394Z,1.80
2019-03-09T13:29:45.871Z,1.93
2019-03-09T13:32:50.207Z,2.53
2019-03-09T13:35:53.657Z,2.53
2019-03-09T13:38:57.137Z,1.70
2019-03-09T13:42:00.573Z,2.07
2019-03-09T13:45:06.395Z,1.40
2019-03-09T13:48:09.872Z,4.07
2019-03-09T13:51:13.378Z,2.20
2019-03-09T13:54:16.837Z,2.83
2019-03-09T13:57:20.297Z,3.90
2019-03-09T14:00:23.761Z,2.80
2019-03-09T14:03:27.204Z,1.50
2019-03-09T14:06:30.665Z,1.73
2019-03-09T14:09:34.110Z,2.13
2019-03-09T14:12:37.573Z,1.70
2019-03-09T14:15:50.237Z,3.33
2019-03-09T14:18:53.674Z,1.93
2019-03-09T14:21:57.136Z,1.60
2019-03-09T14:25:00.573Z,1.83
2019-03-09T14:28:04.053Z,1.60
2019-03-09T14:31:07.494Z,2.20
2019-03-09T14:34:10.962Z,1.83
2019-03-09T14:37:14.405Z,1.70
2019-03-09T14:40:17.866Z,1.50
2019-03-09T14:43:21.330Z,1.80
2019-03-09T14:46:24.775Z,1.63
2019-03-09T14:49:28.245Z,1.50
2019-03-09T14:52:31.674Z,1.97
2019-03-09T14:55:35.137Z,1.70
2019-03-09T14:58:38.578Z,1.77
2019-03-09T15:01:42.041Z,1.40
2019-03-09T15:04:45.528Z,3.77
2019-03-09T15:07:48.957Z,1.67
2019-03-09T15:10:52.419Z,1.93
2019-03-09T15:13:56.042Z,1.97
2019-03-09T15:16:59.605Z,1.80
2019-03-09T15:20:03.640Z,1.83
2019-03-09T15:23:07.097Z,2.07
2019-03-09T15:26:10.523Z,2.53
2019-03-09T15:29:13.982Z,1.47
2019-03-09T15:32:17.437Z,1.33
2019-03-09T15:35:20.867Z,2.17
2019-03-09T15:38:24.333Z,2.30
2019-03-09T15:41:27.790Z,2.00
2019-03-09T15:44:31.242Z,2.47
2019-03-09T15:47:34.697Z,2.30
2019-03-09T15:50:38.129Z,2.63
2019-03-09T15:53:41.590Z,2.80
2019-03-09T15:56:45.137Z,3.13
2019-03-09T15:59:48.575Z,2.70
2019-03-09T16:02:52.474Z,2.20
2019-03-09T16:05:55.911Z,2.10
2019-03-09T16:08:59.370Z,2.57
2019-03-09T16:12:02.829Z,2.00
2019-03-09T16:15:07.925Z,2.30
2019-03-09T16:18:11.386Z,5.77
2019-03-09T16:21:14.830Z,4.63
2019-03-09T16:24:18.273Z,3.87
2019-03-09T16:27:21.738Z,6.47
2019-03-09T16:30:25.174Z,4.87
2019-03-09T16:33:28.629Z,7.80
2019-03-09T16:36:32.081Z,7.30
2019-03-09T16:39:35.542Z,5.17
2019-03-09T16:42:39.245Z,6.83
2019-03-09T16:45:57.949Z,5.33
2019-03-09T16:49:01.413Z,4.77
2019-03-09T16:52:04.870Z,4.57
2019-03-09T16:55:08.670Z,4.00
2019-03-09T16:58:12.106Z,2.10
2019-03-09T17:01:15.568Z,2.80
2019-03-09T17:04:19.037Z,4.03
2019-03-09T17:07:22.498Z,3.90
2019-03-09T17:10:25.955Z,3.87
2019-03-09T17:13:29.394Z,3.10
2019-03-09T17:16:32.933Z,2.53
2019-03-09T17:19:36.358Z,2.07
2019-03-09T17:22:39.823Z,2.67
2019-03-09T17:25:43.288Z,1.50
2019-03-09T17:28:46.716Z,3.33
2019-03-09T17:31:50.171Z,1.63
2019-03-09T17:34:53.601Z,1.60
2019-03-09T17:37:57.057Z,1.77
2019-03-09T17:41:00.529Z,1.80
2019-03-09T17:44:04.125Z,1.60
2019-03-09T17:47:07.586Z,2.33
2019-03-09T17:50:12.867Z,3.97
2019-03-09T17:53:16.334Z,4.70
2019-03-09T17:56:19.834Z,3.03
2019-03-09T17:59:23.304Z,6.00
2019-03-09T18:02:26.735Z,4.80
2019-03-09T18:05:30.189Z,4.83
2019-03-09T18:08:46.717Z,4.73
2019-03-09T18:11:50.190Z,5.00
2019-03-09T18:14:53.621Z,5.50
2019-03-09T18:17:57.154Z,2.93
2019-03-09T18:21:00.585Z,4.10
2019-03-09T18:24:04.047Z,5.00
2019-03-09T18:27:07.509Z,3.47
2019-03-09T18:30:12.022Z,6.03
2019-03-09T18:33:15.526Z,3.70
2019-03-09T18:36:18.978Z,2.93
2019-03-09T18:39:22.423Z,3.93
2019-03-09T18:42:25.910Z,6.60
2019-03-09T18:45:29.341Z,3.53
2019-03-09T18:48:32.793Z,3.47
2019-03-09T18:51:36.229Z,5.57
2019-03-09T18:54:39.700Z,4.97
2019-03-09T18:57:43.125Z,5.67
2019-03-09T19:00:46.590Z,5.30
2019-03-09T19:03:50.048Z,5.23
2019-03-09T19:06:53.507Z,6.40
2019-03-09T19:09:56.956Z,4.93
2019-03-09T19:13:00.397Z,6.20
2019-03-09T19:16:03.865Z,6.93
2019-03-09T19:19:07.301Z,8.30
2019-03-09T19:22:10.765Z,6.63
2019-03-09T19:25:15.154Z,6.30
2019-03-09T19:28:18.623Z,7.57
2019-03-09T19:31:22.148Z,5.80
2019-03-09T19:34:25.582Z,5.00
2019-03-09T19:37:29.040Z,4.57
2019-03-09T19:40:32.473Z,6.27
2019-03-09T19:43:35.945Z,5.43
2019-03-09T19:46:39.449Z,7.57
2019-03-09T19:49:42.915Z,5.97
2019-03-09T19:52:46.366Z,5.20
2019-03-09T19:55:49.810Z,5.30
2019-03-09T19:58:53.775Z,8.93
2019-03-09T20:01:57.213Z,6.67
2019-03-09T20:05:00.670Z,6.83
2019-03-09T20:08:04.104Z,4.03
2019-03-09T20:11:07.563Z,5.83
2019-03-09T20:14:10.988Z,6.57
2019-03-09T20:17:14.469Z,4.70
2019-03-09T20:20:20.830Z,5.63
2019-03-09T20:23:24.282Z,7.07
2019-03-09T20:26:27.717Z,7.10
2019-03-09T20:29:31.181Z,4.20
2019-03-09T20:32:34.620Z,5.13
2019-03-09T20:35:38.153Z,5.17
2019-03-09T20:38:41.594Z,3.33
2019-03-09T20:41:45.061Z,6.63
2019-03-09T20:44:48.497Z,6.03
2019-03-09T20:47:51.985Z,8.23
2019-03-09T20:50:55.489Z,4.70
2019-03-09T20:53:58.961Z,4.73
2019-03-09T20:57:02.398Z,7.97
2019-03-09T21:00:14.671Z,6.60
2019-03-09T21:03:18.134Z,6.80
2019-03-09T21:06:21.610Z,5.27
2019-03-09T21:09:25.046Z,4.53
2019-03-09T21:12:28.506Z,4.97
2019-03-09T21:15:31.971Z,2.73
2019-03-09T21:18:35.489Z,6.87
2019-03-09T21:21:38.946Z,7.33
2019-03-09T21:24:42.426Z,4.00
2019-03-09T21:27:45.862Z,7.37
2019-03-09T21:30:49.337Z,6.50
2019-03-09T21:33:52.777Z,7.50
2019-03-09T21:36:56.278Z,5.70
2019-03-09T21:39:59.750Z,4.83
2019-03-09T21:43:03.218Z,6.20
2019-03-09T21:46:06.661Z,8.20
2019-03-09T21:49:10.133Z,14.40
2019-03-09T21:52:13.566Z,8.40
2019-03-09T21:55:17.400Z,7.93
2019-03-09T21:58:20.832Z,5.20
2019-03-09T22:01:24.310Z,8.53
2019-03-09T22:04:27.741Z,9.37
2019-03-09T22:07:31.204Z,6.30
2019-03-09T22:10:34.763Z,5.80
2019-03-09T22:13:38.217Z,6.33
2019-03-09T22:16:41.681Z,7.70
2019-03-09T22:19:45.117Z,6.87
2019-03-09T22:22:48.584Z,6.40
2019-03-09T22:25:52.026Z,7.03
2019-03-09T22:28:55.495Z,6.60
2019-03-09T22:31:59.023Z,7.63
2019-03-09T22:35:02.466Z,9.27
2019-03-09T22:38:05.920Z,4.17
2019-03-09T22:41:09.381Z,6.77
2019-03-09T22:44:12.826Z,4.87
2019-03-09T22:47:16.279Z,4.07
2019-03-09T22:50:24.205Z,3.93
2019-03-09T22:53:27.709Z,5.43
2019-03-09T22:56:31.173Z,3.33
2019-03-09T22:59:34.624Z,5.33
2019-03-09T23:02:38.358Z,7.30
2019-03-09T23:05:41.801Z,4.90
2019-03-09T23:08:45.249Z,5.47
2019-03-09T23:11:48.734Z,8.27
2019-03-09T23:14:52.218Z,8.60
2019-03-09T23:17:55.679Z,9.07
2019-03-09T23:20:59.121Z,7.97
2019-03-09T23:24:02.565Z,6.70
2019-03-09T23:27:06.006Z,8.03
2019-03-09T23:30:17.540Z,8.80
2019-03-09T23:33:21.042Z,6.07
2019-03-09T23:36:24.546Z,6.57
2019-03-09T23:39:28.066Z,7.23
2019-03-09T23:42:31.510Z,8.10
2019-03-09T23:45:34.965Z,8.13
2019-03-09T23:48:38.410Z,7.73
2019-03-09T23:51:41.938Z,8.27
2019-03-09T23:54:45.390Z,7.07
2019-03-09T23:57:49.271Z,7.23
